Time;durP1;ratioP1;P1;durP2;ratioP2;P2;SDS_P1;SDS_P2;PMS_P1;PMS_P2;Temp;Humidity;BMP_temperature;BMP_pressure;BME280_temperature;BME280_humidity;BME280_pressure;Samples;Min_cycle;Max_cycle;Signal;HPM_P1;HPM_P2
2021/07/14 00:00:34;;;;;;;12.10;10.90;;;;;;;20.96;73.89;99969.98;93058;1213;86969;-66
2021/07/14 00:02:59;;;;;;;13.50;10.80;;;;;;;20.92;73.99;99971.63;93090;1209;75354;-66
2021/07/14 00:05:11;;;;;;;13.90;12.10;;;;;;;20.90;74.13;99960.92;93047;1204;80450;-66
2021/07/14 00:07:21;;;;;;;13.20;11.90;;;;;;;20.89;74.09;99969.41;93067;1214;65235;-65
2021/07/14 00:09:29;;;;;;;13.70;12.30;;;;;;;20.87;74.22;99957.88;93085;1208;69296;-65
2021/07/14 00:11:43;;;;;;;13.70;12.20;;;;;;;20.87;74.19;99961.45;93066;1209;87705;-65
2021/07/14 00:14:04;;;;;;;12.80;11.50;;;;;;;20.86;74.17;99959.80;93102;1208;75643;-66
2021/07/14 00:23:32;;;;;;;13.60;12.40;;;;;;;20.78;74.39;99965.80;93110;1208;85689;-67
2021/07/14 00:25:39;;;;;;;13.80;11.70;;;;;;;20.74;74.25;99961.91;92949;1208;74399;-66
2021/07/14 00:27:49;;;;;;;12.70;11.50;;;;;;;20.75;74.31;99963.58;93044;1206;82209;-66
2021/07/14 00:29:59;;;;;;;13.40;11.70;;;;;;;20.75;74.51;99966.33;93065;1215;68713;-66
2021/07/14 00:32:08;;;;;;;12.80;11.60;;;;;;;20.75;74.50;99960.00;93113;1209;70286;-67
2021/07/14 00:34:16;;;;;;;13.80;12.50;;;;;;;20.75;74.64;99954.52;93090;1208;85910;-66
2021/07/14 00:36:23;;;;;;;18.70;12.20;;;;;;;20.75;74.60;99951.77;93092;1208;73822;-67
2021/07/14 00:38:34;;;;;;;12.80;11.70;;;;;;;20.77;74.42;99949.57;93083;1204;82509;-67
2021/07/14 00:40:42;;;;;;;12.50;11.10;;;;;;;20.75;74.39;99947.11;93059;1209;67460;-65
2021/07/14 00:42:50;;;;;;;13.10;11.20;;;;;;;20.78;74.71;99951.23;93072;1208;69891;-65
2021/07/14 00:44:59;;;;;;;12.80;11.60;;;;;;;20.75;74.61;99951.77;93083;1208;86814;-66
2021/07/14 00:47:09;;;;;;;12.80;11.60;;;;;;;20.72;74.74;99949.55;93092;1208;75904;-66
2021/07/14 00:49:18;;;;;;;13.40;12.00;;;;;;;20.72;74.81;99949.55;93080;1208;81978;-66
2021/07/14 00:51:26;;;;;;;13.00;11.70;;;;;;;20.69;74.68;99950.08;93047;1208;69034;-67
2021/07/14 00:53:33;;;;;;;13.10;11.80;;;;;;;20.67;74.69;99949.53;93072;1207;68400;-66
2021/07/14 00:55:41;;;;;;;12.40;11.20;;;;;;;20.65;74.61;99948.98;92919;1209;86520;-67
2021/07/14 00:57:49;;;;;;;14.10;12.30;;;;;;;20.66;74.83;99950.64;93085;1208;74836;-67
2021/07/14 00:59:57;;;;;;;13.20;12.00;;;;;;;20.66;74.89;99950.64;93089;1204;81331;-65
2021/07/14 01:02:05;;;;;;;13.00;11.70;;;;;;;20.68;74.80;99948.45;93050;1208;66995;-65
2021/07/14 01:04:20;;;;;;;14.40;12.60;;;;;;;20.64;74.86;99952.80;93067;1208;69184;-65
2021/07/14 01:06:42;;;;;;;12.40;11.10;;;;;;;20.65;74.71;99955.30;93077;1209;86809;-65
2021/07/14 01:09:02;;;;;;;12.90;11.70;;;;;;;20.64;74.84;99948.14;93065;1208;74881;-65
2021/07/14 01:11:13;;;;;;;15.00;12.00;;;;;;;20.65;74.79;99959.95;93075;1209;80584;-65
2021/07/14 01:13:36;;;;;;;14.00;12.70;;;;;;;20.62;74.96;99964.06;93094;1208;66983;-65
2021/07/14 01:15:52;;;;;;;13.80;11.40;;;;;;;20.59;74.91;99961.84;93117;1209;68859;-65
2021/07/14 01:18:07;;;;;;;13.30;11.90;;;;;;;20.54;75.07;99962.65;93078;1209;85737;-65
2021/07/14 01:20:42;;;;;;;12.60;11.30;;;;;;;20.54;75.02;99957.16;93107;1208;75523;-67
2021/07/14 01:23:06;;;;;;;13.00;11.70;;;;;;;20.53;74.99;99966.47;93068;1208;82873;-67
2021/07/14 01:25:30;;;;;;;13.20;12.00;;;;;;;20.52;74.95;99963.98;93117;1208;66565;-65
2021/07/14 01:27:40;;;;;;;;;;;;;;;20.49;75.11;99968.08;93137;1214;69156;-65
2021/07/14 01:29:54;;;;;;;13.50;12.30;;;;;;;20.48;75.22;99966.45;93089;1207;86437;-67
2021/07/14 01:32:06;;;;;;;;;;;;;;;20.44;75.24;99976.28;93110;1215;75261;-67
2021/07/14 01:34:15;;;;;;;12.50;11.30;;;;;;;20.39;75.25;99970.77;93106;1208;81180;-65
2021/07/14 01:36:29;;;;;;;12.20;11.10;;;;;;;20.38;75.38;99971.84;93091;1202;68605;-65
2021/07/14 01:38:37;;;;;;;;;;;;;;;20.37;75.47;99972.95;93094;1208;68502;-65
2021/07/14 01:40:46;;;;;;;13.70;12.00;;;;;;;20.34;75.56;99967.98;93100;1209;86822;-65
2021/07/14 01:42:59;;;;;;;14.30;12.90;;;;;;;20.34;75.61;99961.67;93078;1209;74893;-66
2021/07/14 01:45:09;;;;;;;14.70;13.30;;;;;;;20.30;75.75;99964.11;93119;1209;80483;-68
2021/07/14 01:47:18;;;;;;;13.70;12.40;;;;;;;20.28;75.66;99971.78;93091;1208;68349;-67
2021/07/14 01:49:28;;;;;;;13.40;12.10;;;;;;;20.27;75.63;99969.31;93088;1209;67466;-66
2021/07/14 01:51:41;;;;;;;16.10;13.80;;;;;;;20.28;75.58;99963.55;93104;1208;86612;-66
2021/07/14 01:53:58;;;;;;;14.40;13.00;;;;;;;20.31;75.71;99971.26;93112;1209;74219;-66
2021/07/14 01:56:10;;;;;;;14.50;12.20;;;;;;;20.27;75.90;99970.11;93078;1214;82023;-67
2021/07/14 01:58:20;;;;;;;13.70;12.20;;;;;;;20.27;76.02;99970.11;93064;1208;68476;-68
2021/07/14 02:00:29;;;;;;;12.70;11.60;;;;;;;20.26;75.91;99973.97;93098;1215;70283;-65
2021/07/14 02:02:47;;;;;;;14.30;12.40;;;;;;;20.26;75.90;99971.22;93077;1208;85729;-65
2021/07/14 02:04:57;;;;;;;13.40;11.90;;;;;;;20.29;75.95;99964.38;93083;1208;74138;-66
2021/07/14 02:07:11;;;;;;;14.80;13.00;;;;;;;20.25;75.93;99972.30;93123;1203;82679;-66
2021/07/14 02:09:20;;;;;;;13.40;12.00;;;;;;;20.24;75.97;99975.29;93036;1209;67116;-67
2021/07/14 02:11:30;;;;;;;14.50;12.90;;;;;;;20.24;76.05;99970.67;93053;1209;67677;-67
2021/07/14 02:13:39;;;;;;;15.00;13.20;;;;;;;20.22;75.94;99969.22;93084;1209;88102;-66
2021/07/14 02:15:54;;;;;;;14.10;11.90;;;;;;;20.18;76.36;99976.33;93098;1208;75242;-65
2021/07/14 02:18:08;;;;;;;13.90;12.50;;;;;;;20.15;76.25;99974.94;93062;1208;80182;-65
2021/07/14 02:20:20;;;;;;;14.60;13.00;;;;;;;20.13;76.16;99979.88;93022;1209;65711;-66
2021/07/14 02:22:31;;;;;;;13.70;12.30;;;;;;;20.14;76.51;99975.19;93130;1208;68879;-66
2021/07/14 02:24:39;;;;;;;14.10;12.80;;;;;;;20.12;76.54;99972.72;93083;1209;87502;-67
2021/07/14 02:26:50;;;;;;;16.20;12.90;;;;;;;20.10;76.43;99974.91;93050;1208;74916;-66
2021/07/14 02:28:58;;;;;;;14.80;12.00;;;;;;;20.09;76.54;99966.92;93038;1209;80270;-65
2021/07/14 02:31:06;;;;;;;14.30;12.90;;;;;;;20.07;76.68;99969.95;93061;1209;67903;-65
2021/07/14 02:33:15;;;;;;;14.10;12.70;;;;;;;20.09;76.66;99981.47;93084;1215;68943;-65
2021/07/14 02:35:24;;;;;;;14.50;12.90;;;;;;;20.07;76.85;99982.82;93102;1207;87544;-66
2021/07/14 02:37:55;;;;;;;16.00;12.00;;;;;;;20.08;76.95;99990.77;93076;1207;75636;-66
2021/07/14 02:40:07;;;;;;;13.60;12.20;;;;;;;20.09;76.83;99989.70;93090;1208;81900;-66
2021/07/14 02:42:28;;;;;;;14.10;12.40;;;;;;;20.08;76.85;99988.03;93094;1213;66997;-66
2021/07/14 02:44:45;;;;;;;15.70;12.60;;;;;;;20.07;76.77;99977.34;93119;1208;70137;-66
2021/07/14 02:46:58;;;;;;;13.40;12.10;;;;;;;20.06;76.86;99976.50;93111;1204;86270;-66
2021/07/14 02:49:11;;;;;;;14.20;12.70;;;;;;;19.95;77.10;99975.59;93054;1208;74618;-65
2021/07/14 02:51:22;;;;;;;15.00;13.50;;;;;;;19.90;77.10;99980.20;93102;1208;82674;-61
2021/07/14 02:53:34;;;;;;;13.10;12.00;;;;;;;19.88;77.00;99974.16;93066;1208;67989;-65
2021/07/14 02:55:44;;;;;;;14.00;12.50;;;;;;;19.93;77.17;99968.72;93095;1209;69040;-63
2021/07/14 02:57:57;;;;;;;14.90;13.40;;;;;;;19.98;77.49;99976.98;93079;1208;88224;-66
2021/07/14 03:00:07;;;;;;;14.10;12.70;;;;;;;20.04;77.42;99973.20;93110;1208;75042;-66
2021/07/14 03:02:16;;;;;;;14.40;13.00;;;;;;;20.12;77.43;99972.72;93076;1208;81107;-67
2021/07/14 03:04:26;;;;;;;14.00;12.70;;;;;;;20.21;77.28;99975.81;92863;1208;67288;-66
2021/07/14 03:06:38;;;;;;;18.60;13.60;;;;;;;20.29;77.26;99973.44;93021;1208;68923;-67
2021/07/14 03:09:02;;;;;;;15.60;13.30;;;;;;;20.37;77.46;99970.21;93058;1213;87024;-66
2021/07/14 03:11:12;;;;;;;14.50;13.10;;;;;;;20.39;77.41;99976.25;93087;1208;75933;-67
2021/07/14 03:13:24;;;;;;;13.60;12.30;;;;;;;20.40;77.26;99972.43;93016;1208;81322;-67
2021/07/14 03:15:33;;;;;;;13.70;12.50;;;;;;;20.46;77.32;99967.80;92912;1208;68137;-67
2021/07/14 03:17:46;;;;;;;13.50;12.10;;;;;;;20.48;77.39;99966.45;93074;1208;69487;-67
2021/07/14 03:19:55;;;;;;;15.90;13.40;;;;;;;20.56;77.26;99965.95;93090;1208;87764;-67
2021/07/14 03:22:04;;;;;;;14.50;13.20;;;;;;;20.66;77.36;99962.42;93118;1208;74953;-67
2021/07/14 03:24:16;;;;;;;17.60;14.20;;;;;;;20.73;77.40;99962.20;93135;1208;80763;-66
2021/07/14 03:26:23;;;;;;;14.70;13.40;;;;;;;20.80;77.10;99960.86;92941;1209;67741;-66
2021/07/14 03:28:31;;;;;;;15.00;13.50;;;;;;;20.90;77.07;99957.34;93085;1207;70381;-65
2021/07/14 03:30:39;;;;;;;13.80;12.40;;;;;;;20.96;77.07;99961.75;93109;1213;87090;-66
2021/07/14 03:32:47;;;;;;;14.10;12.70;;;;;;;21.08;77.03;99959.65;93130;1207;74081;-66
2021/07/14 03:34:55;;;;;;;15.70;14.20;;;;;;;21.14;77.17;99958.58;93084;1207;81485;-66
2021/07/14 03:37:06;;;;;;;15.70;13.30;;;;;;;21.24;76.89;99957.77;93103;1203;66844;-66
2021/07/14 03:39:14;;;;;;;15.80;13.70;;;;;;;21.33;76.73;99950.66;93061;1209;68590;-66
2021/07/14 03:41:25;;;;;;;14.80;13.10;;;;;;;21.42;76.69;99958.13;93066;1208;86645;-66
2021/07/14 03:43:35;;;;;;;14.00;12.60;;;;;;;21.53;76.49;99957.05;93056;1214;75879;-66
2021/07/14 03:45:44;;;;;;;14.30;12.90;;;;;;;21.67;76.48;99952.66;93022;1209;82163;-67
2021/07/14 03:47:53;;;;;;;15.10;13.60;;;;;;;21.85;76.21;99954.06;93071;1209;66403;-66
2021/07/14 03:50:02;;;;;;;16.10;14.40;;;;;;;22.05;76.21;99958.78;93135;1208;67743;-65
2021/07/14 03:52:11;;;;;;;13.90;12.50;;;;;;;22.28;75.87;99960.96;93077;1214;86944;-64
2021/07/14 03:54:21;;;;;;;14.40;13.00;;;;;;;22.45;75.73;99958.75;93066;1208;74857;-65
2021/07/14 03:56:29;;;;;;;15.30;13.00;;;;;;;22.64;75.39;99962.59;93042;1208;82040;-65
2021/07/14 03:58:43;;;;;;;13.80;12.50;;;;;;;22.81;74.95;99963.11;93065;1209;66830;-65
2021/07/14 04:00:54;;;;;;;14.20;12.90;;;;;;;23.04;74.96;99960.83;93080;1208;69506;-67
2021/07/14 04:03:02;;;;;;;14.70;13.30;;;;;;;23.28;74.52;99961.81;93111;1209;86290;-67
2021/07/14 04:05:13;;;;;;;14.80;13.20;;;;;;;23.40;73.91;99971.42;93104;1208;75428;-65
2021/07/14 04:07:26;;;;;;;18.90;13.50;;;;;;;23.60;73.76;99970.48;93101;1208;80104;-65
2021/07/14 04:09:34;;;;;;;13.40;11.50;;;;;;;23.75;73.39;99977.85;93079;1208;67403;-65
2021/07/14 04:11:45;;;;;;;13.80;12.40;;;;;;;23.90;73.12;99986.00;93101;1208;69741;-65
2021/07/14 04:13:55;;;;;;;14.80;12.20;;;;;;;24.20;72.68;99983.05;92840;1208;86327;-66
2021/07/14 04:16:03;;;;;;;13.40;11.60;;;;;;;24.42;72.45;99982.60;93111;1209;75074;-65
2021/07/14 04:18:12;;;;;;;12.50;11.30;;;;;;;24.56;71.80;99976.09;93091;1215;81414;-65
2021/07/14 04:20:20;;;;;;;12.50;11.30;;;;;;;24.75;71.39;99976.16;93027;1208;66158;-65
2021/07/14 04:22:27;;;;;;;12.80;11.50;;;;;;;24.98;71.13;99983.69;93101;1208;69094;-65
2021/07/14 04:24:35;;;;;;;13.20;12.00;;;;;;;25.16;71.03;99982.91;93091;1204;86600;-65
2021/07/14 04:26:43;;;;;;;14.00;12.40;;;;;;;25.35;70.59;99976.61;93085;1215;75026;-65
2021/07/14 04:28:54;;;;;;;13.00;11.80;;;;;;;25.58;69.93;99976.58;93053;1209;80293;-65
2021/07/14 04:31:02;;;;;;;12.60;11.30;;;;;;;25.73;69.32;99973.61;93062;1209;65615;-67
2021/07/14 04:33:13;;;;;;;12.70;11.40;;;;;;;25.90;68.85;99970.31;93106;1209;69422;-67
2021/07/14 04:35:21;;;;;;;12.00;11.00;;;;;;;26.15;68.64;99972.67;93103;1209;87859;-67
2021/07/14 04:37:29;;;;;;;12.90;11.50;;;;;;;26.30;68.37;99974.38;93069;1215;75439;-67
2021/07/14 04:39:36;;;;;;;11.70;10.50;;;;;;;26.54;68.10;99968.67;93042;1209;81477;-65
2021/07/14 04:41:44;;;;;;;12.70;11.00;;;;;;;26.56;67.16;99981.13;93067;1207;66798;-65
2021/07/14 04:43:56;;;;;;;12.30;11.10;;;;;;;26.56;67.14;99971.98;93129;1208;67953;-66
2021/07/14 04:46:04;;;;;;;12.10;11.00;;;;;;;26.70;67.10;99973.63;93073;1209;86343;-67
2021/07/14 04:48:12;;;;;;;12.40;11.20;;;;;;;27.03;66.71;99965.29;93084;1209;75085;-67
2021/07/14 04:50:22;;;;;;;12.50;10.50;;;;;;;27.22;65.89;99968.77;93077;1204;80112;-65
2021/07/14 04:52:33;;;;;;;12.90;11.60;;;;;;;27.46;65.66;99961.89;92970;1208;66748;-65
2021/07/14 04:54:41;;;;;;;12.40;11.20;;;;;;;27.67;65.21;99964.18;93116;1208;68265;-67
2021/07/14 04:56:50;;;;;;;13.90;12.60;;;;;;;27.96;64.42;99965.41;93107;1209;86304;-67
2021/07/14 04:58:58;;;;;;;14.80;12.70;;;;;;;28.19;64.16;99971.84;93087;1209;74858;-66
2021/07/14 05:01:06;;;;;;;14.80;13.30;;;;;;;28.32;63.73;99965.38;93053;1208;81234;-66
2021/07/14 05:03:14;;;;;;;14.10;12.50;;;;;;;28.60;62.90;99966.04;93065;1208;65927;-66
2021/07/14 05:05:22;;;;;;;12.50;11.40;;;;;;;28.73;62.77;99962.41;92987;1208;69417;-65
2021/07/14 05:07:30;;;;;;;12.90;11.60;;;;;;;28.90;62.20;99958.88;93052;1209;86701;-65
2021/07/14 05:09:38;;;;;;;13.30;12.10;;;;;;;29.11;61.76;99959.92;93040;1209;74983;-65
2021/07/14 05:11:45;;;;;;;12.50;11.20;;;;;;;29.30;61.19;99954.94;93072;1208;80486;-66
2021/07/14 05:13:56;;;;;;;12.80;11.70;;;;;;;29.44;61.20;99941.70;93031;1209;66364;-66
2021/07/14 05:16:04;;;;;;;13.30;12.20;;;;;;;29.62;60.47;99943.35;93104;1214;69528;-67
2021/07/14 05:18:12;;;;;;;13.30;11.90;;;;;;;29.80;60.10;99947.80;93062;1215;87811;-67
2021/07/14 05:20:20;;;;;;;12.40;11.20;;;;;;;30.06;59.73;99941.41;93104;1215;75347;-66
2021/07/14 05:22:28;;;;;;;13.00;11.50;;;;;;;30.15;59.48;99939.44;93087;1208;81380;-66
2021/07/14 05:24:37;;;;;;;13.00;11.70;;;;;;;30.25;57.75;99950.23;93073;1208;67393;-65
2021/07/14 05:26:44;;;;;;;14.60;13.30;;;;;;;30.47;57.54;99944.48;92970;1208;69564;-65
2021/07/14 05:28:52;;;;;;;14.00;12.60;;;;;;;30.50;57.09;99941.03;93072;1204;85432;-65
2021/07/14 05:30:59;;;;;;;14.30;13.10;;;;;;;30.60;56.61;99942.66;93066;1209;73999;-67
2021/07/14 05:33:07;;;;;;;13.50;12.40;;;;;;;30.96;56.44;99943.83;93105;1203;81115;-67
2021/07/14 05:35:15;;;;;;;14.10;13.00;;;;;;;31.15;56.36;99943.39;93059;1209;66520;-67
2021/07/14 05:37:23;;;;;;;13.30;12.00;;;;;;;31.33;55.92;99942.16;93104;1208;69406;-67
2021/07/14 05:39:31;;;;;;;14.70;13.30;;;;;;;31.35;54.98;99941.81;93082;1215;86781;-67
2021/07/14 05:41:38;;;;;;;13.70;12.40;;;;;;;31.71;54.54;99947.66;93094;1208;74767;-67
2021/07/14 05:43:49;;;;;;;15.20;13.70;;;;;;;31.90;54.20;99945.20;93060;1208;80339;-67
2021/07/14 05:45:57;;;;;;;14.50;13.30;;;;;;;32.13;53.39;99942.08;93058;1215;66368;-66
2021/07/14 05:48:06;;;;;;;16.80;13.10;;;;;;;32.23;53.06;99944.44;93105;1209;68380;-64
2021/07/14 05:50:15;;;;;;;14.70;13.00;;;;;;;32.17;52.95;99949.42;93126;1208;87054;-66
2021/07/14 05:52:22;;;;;;;15.20;12.40;;;;;;;32.31;52.78;99940.73;93106;1208;74784;-65
2021/07/14 05:54:30;;;;;;;13.20;12.00;;;;;;;32.39;52.62;99940.64;93091;1208;81895;-66
2021/07/14 05:56:38;;;;;;;14.40;13.20;;;;;;;32.74;51.96;99938.31;93083;1207;67020;-65
2021/07/14 05:58:45;;;;;;;14.40;13.20;;;;;;;33.01;51.58;99939.61;93093;1215;69371;-65
2021/07/14 06:00:54;;;;;;;13.80;12.70;;;;;;;33.37;50.61;99944.41;93115;1214;85451;-65
2021/07/14 06:03:01;;;;;;;13.60;12.30;;;;;;;33.56;50.52;99928.63;93091;1203;75223;-65
2021/07/14 06:05:12;;;;;;;14.30;13.00;;;;;;;33.59;49.20;99930.75;93053;1208;81379;-66
2021/07/14 06:07:23;;;;;;;13.80;12.60;;;;;;;33.50;49.89;99932.01;93113;1204;66478;-65
2021/07/14 06:09:30;;;;;;;13.90;12.60;;;;;;;33.73;49.28;99933.16;93075;1209;67937;-65
2021/07/14 06:11:39;;;;;;;14.90;13.70;;;;;;;33.90;48.80;99937.66;93068;1209;86511;-65
2021/07/14 06:13:46;;;;;;;14.30;13.00;;;;;;;34.00;48.58;99932.36;93061;1209;74739;-65
2021/07/14 06:15:54;;;;;;;14.20;13.00;;;;;;;34.23;47.93;99941.86;93044;1209;80810;-67
2021/07/14 06:18:02;;;;;;;14.80;13.70;;;;;;;34.22;47.71;99937.44;93087;1208;65754;-67
2021/07/14 06:20:13;;;;;;;13.70;12.50;;;;;;;34.16;48.46;99941.67;92840;1208;69139;-67
2021/07/14 06:22:24;;;;;;;15.60;14.00;;;;;;;34.13;47.40;99942.38;93054;1208;87108;-67
2021/07/14 06:24:32;;;;;;;14.40;13.20;;;;;;;34.48;46.91;99945.34;93045;1214;75644;-66
2021/07/14 06:26:43;;;;;;;14.20;12.90;;;;;;;34.63;46.64;99932.55;93095;1208;81958;-66
2021/07/14 06:28:52;;;;;;;27.30;24.60;;;;;;;34.70;46.93;99938.33;93125;1209;67114;-66
2021/07/14 06:31:00;;;;;;;40.10;36.60;;;;;;;34.80;46.12;99940.63;93100;1208;67406;-66
2021/07/14 06:33:07;;;;;;;15.30;13.90;;;;;;;35.03;46.02;99947.21;93097;1209;87366;-67
2021/07/14 06:35:16;;;;;;;14.90;13.80;;;;;;;35.10;45.92;99941.82;92943;1208;73888;-67
2021/07/14 06:37:27;;;;;;;13.60;12.30;;;;;;;35.24;45.81;99936.55;93086;1215;81183;-67
2021/07/14 06:39:35;;;;;;;14.00;12.80;;;;;;;35.17;45.90;99930.74;93102;1208;65526;-65
2021/07/14 06:41:43;;;;;;;13.50;12.40;;;;;;;35.24;45.32;99930.93;93120;1209;67692;-65
2021/07/14 06:43:54;;;;;;;15.00;13.70;;;;;;;35.40;44.98;99930.89;93131;1202;86307;-65
2021/07/14 06:46:02;;;;;;;14.10;12.80;;;;;;;35.44;44.83;99935.39;93092;1208;75339;-67
2021/07/14 06:48:09;;;;;;;14.40;13.00;;;;;;;35.27;45.17;99930.17;93111;1208;80639;-67
2021/07/14 06:50:17;;;;;;;15.20;14.00;;;;;;;35.38;44.94;99931.23;93053;1209;65865;-66
2021/07/14 06:52:25;;;;;;;17.00;13.40;;;;;;;35.35;44.87;99937.61;93111;1207;67977;-66
2021/07/14 06:54:38;;;;;;;14.80;13.30;;;;;;;35.03;44.97;99938.78;93101;1208;86119;-65
2021/07/14 06:56:45;;;;;;;13.70;12.40;;;;;;;35.26;45.30;99939.80;93113;1208;75292;-65
2021/07/14 06:58:53;;;;;;;15.60;13.20;;;;;;;35.28;45.15;99936.61;93082;1208;82736;-65
2021/07/14 07:01:01;;;;;;;15.30;12.50;;;;;;;35.35;45.60;99937.61;93123;1203;67502;-65
2021/07/14 07:03:08;;;;;;;14.40;13.00;;;;;;;35.03;44.81;99941.59;93085;1208;68754;-67
2021/07/14 07:05:16;;;;;;;14.40;12.00;;;;;;;35.07;45.31;99931.31;93102;1208;85416;-66
2021/07/14 07:07:24;;;;;;;13.10;11.90;;;;;;;34.92;44.44;99934.90;93124;1214;74750;-67
2021/07/14 07:09:31;;;;;;;13.00;11.70;;;;;;;34.96;45.84;99931.02;93133;1208;81890;-59
2021/07/14 07:11:39;;;;;;;13.80;12.30;;;;;;;35.38;45.07;99922.02;93097;1208;67519;-61
2021/07/14 07:13:47;;;;;;;19.50;12.90;;;;;;;35.67;44.75;99934.73;93115;1208;68638;-60
2021/07/14 07:15:55;;;;;;;13.10;11.90;;;;;;;35.95;44.15;99930.54;93131;1209;86569;-59
2021/07/14 07:18:03;;;;;;;13.50;12.10;;;;;;;36.03;43.51;99923.91;93117;1209;75219;-60
2021/07/14 07:20:15;;;;;;;14.30;12.50;;;;;;;36.27;42.93;99921.94;93112;1207;81455;-59
2021/07/14 07:22:23;;;;;;;14.20;13.00;;;;;;;36.31;42.92;99928.47;93132;1208;65982;-59
2021/07/14 07:24:31;;;;;;;12.50;11.40;;;;;;;36.46;43.18;99936.80;93125;1207;68736;-66
2021/07/14 07:26:44;;;;;;;13.50;12.00;;;;;;;36.17;42.71;99931.00;93100;1209;85938;-66
2021/07/14 07:28:58;;;;;;;13.50;12.10;;;;;;;36.25;42.75;99925.14;93077;1208;76059;-63
2021/07/14 07:31:09;;;;;;;16.90;13.50;;;;;;;36.26;42.10;99926.75;93058;1209;81346;-60
2021/07/14 07:33:17;;;;;;;15.10;13.50;;;;;;;36.35;42.62;99923.70;93058;1208;66227;-60
2021/07/14 07:35:25;;;;;;;14.20;12.90;;;;;;;36.47;41.93;99927.17;93024;1209;68596;-65
2021/07/14 07:37:35;;;;;;;14.10;12.90;;;;;;;36.22;42.22;99925.88;93075;1213;87031;-66
2021/07/14 07:39:45;;;;;;;13.50;12.20;;;;;;;36.87;41.67;99931.50;92940;1208;75496;-60
2021/07/14 07:41:52;;;;;;;13.50;12.40;;;;;;;37.10;41.91;99932.34;93072;1215;81198;-60
2021/07/14 07:44:04;;;;;;;14.00;12.60;;;;;;;37.17;40.98;99927.63;93076;1208;65409;-65
2021/07/14 07:46:11;;;;;;;14.60;12.80;;;;;;;37.47;41.88;99924.09;93084;1214;69602;-65
2021/07/14 07:48:19;;;;;;;12.90;11.80;;;;;;;37.53;41.72;99923.36;93048;1208;86211;-65
2021/07/14 07:50:27;;;;;;;14.70;13.40;;;;;;;37.82;40.93;99921.74;92800;1208;74862;-60
2021/07/14 07:52:38;;;;;;;14.80;13.40;;;;;;;37.92;39.94;99923.91;93126;1209;80266;-60
2021/07/14 07:54:46;;;;;;;14.00;12.50;;;;;;;37.42;40.08;99919.57;93105;1209;66758;-65
2021/07/14 07:56:54;;;;;;;13.60;12.30;;;;;;;37.68;40.17;99925.19;93108;1208;67746;-66
2021/07/14 07:59:05;;;;;;;14.10;12.70;;;;;;;37.91;40.06;99921.48;93120;1208;86821;-66
2021/07/14 08:01:13;;;;;;;14.30;12.80;;;;;;;38.06;39.89;99918.44;93112;1209;76179;-65
2021/07/14 08:03:21;;;;;;;14.70;13.30;;;;;;;38.18;39.27;99923.84;93037;1208;81648;-65
2021/07/14 08:05:29;;;;;;;12.80;11.80;;;;;;;38.09;39.53;99917.67;93080;1208;65623;-65
2021/07/14 08:07:37;;;;;;;13.30;12.20;;;;;;;38.40;39.79;99918.45;93110;1208;68045;-66
2021/07/14 08:09:44;;;;;;;14.10;12.60;;;;;;;38.35;39.78;99922.41;93067;1208;87416;-60
2021/07/14 08:11:53;;;;;;;14.50;12.00;;;;;;;38.43;39.56;99932.61;93075;1208;75376;-60
2021/07/14 08:14:01;;;;;;;14.00;12.70;;;;;;;38.53;39.22;99926.25;93060;1208;81639;-65
2021/07/14 08:16:09;;;;;;;14.90;13.10;;;;;;;38.80;39.13;99929.75;93060;1208;67302;-65
2021/07/14 08:18:20;;;;;;;13.30;11.90;;;;;;;38.89;38.41;99927.42;93088;1208;69844;-66
2021/07/14 08:20:27;;;;;;;14.80;13.10;;;;;;;38.66;38.98;99924.75;93059;1208;87456;-65
2021/07/14 08:22:35;;;;;;;13.60;12.20;;;;;;;38.84;38.70;99919.31;93069;1209;74605;-66
2021/07/14 08:24:43;;;;;;;13.20;12.00;;;;;;;38.79;38.76;99919.64;93066;1208;81910;-66
2021/07/14 08:26:53;;;;;;;14.20;12.30;;;;;;;38.96;38.78;99933.11;93054;1208;67000;-66
2021/07/14 08:29:04;;;;;;;12.80;11.60;;;;;;;39.14;39.36;99944.58;93073;1215;69505;-65
2021/07/14 08:31:12;;;;;;;10.40;9.50;;;;;;;39.22;38.31;99940.63;93069;1208;87286;-65
2021/07/14 08:33:20;;;;;;;12.70;11.60;;;;;;;39.28;38.05;99942.67;93091;1208;74061;-65
2021/07/14 08:35:28;;;;;;;13.50;12.20;;;;;;;39.33;38.20;99941.52;93114;1209;80577;-60
2021/07/14 08:37:36;;;;;;;12.10;10.80;;;;;;;39.49;38.25;99944.84;93033;1208;66696;-60
2021/07/14 08:39:46;;;;;;;10.80;9.90;;;;;;;39.43;37.92;99943.59;93092;1213;69403;-66
2021/07/14 08:41:57;;;;;;;12.10;11.00;;;;;;;39.31;38.35;99952.41;93099;1213;85712;-66
2021/07/14 08:44:06;;;;;;;11.70;10.50;;;;;;;39.31;37.55;99952.41;93062;1208;75638;-64
2021/07/14 08:46:14;;;;;;;12.00;10.80;;;;;;;39.40;37.25;99950.03;93134;1209;81771;-64
2021/07/14 08:48:22;;;;;;;10.50;9.60;;;;;;;39.33;37.06;99950.81;93084;1209;68162;-65
2021/07/14 08:50:31;;;;;;;11.90;10.90;;;;;;;39.30;36.91;99942.30;93129;1208;69092;-60
2021/07/14 08:52:45;;;;;;;10.90;10.00;;;;;;;39.20;36.76;99940.22;93064;1208;87911;-60
2021/07/14 08:55:00;;;;;;;11.10;9.90;;;;;;;39.25;37.52;99945.50;93105;1215;75116;-67
2021/07/14 08:57:09;;;;;;;10.90;10.00;;;;;;;39.24;36.96;99950.33;93080;1207;81368;-66
2021/07/14 08:59:20;;;;;;;10.90;10.00;;;;;;;39.50;36.75;99952.14;93092;1213;67189;-66
2021/07/14 09:01:28;;;;;;;10.80;9.80;;;;;;;39.29;37.72;99951.97;92922;1209;68562;-64
2021/07/14 09:03:37;;;;;;;11.00;10.00;;;;;;;39.29;36.79;99946.31;92951;1209;85299;-64
2021/07/14 09:05:46;;;;;;;11.90;10.70;;;;;;;39.33;35.89;99947.16;93111;1203;75171;-59
2021/07/14 09:07:57;;;;;;;10.30;9.50;;;;;;;39.51;35.98;99956.56;93077;1208;80229;-59
2021/07/14 09:10:06;;;;;;;11.20;10.10;;;;;;;39.28;37.94;99948.33;93057;1208;67621;-64
2021/07/14 09:12:16;;;;;;;11.90;10.30;;;;;;;39.28;37.92;99953.19;92953;1208;70313;-65
2021/07/14 09:14:34;;;;;;;11.00;9.10;;;;;;;39.22;37.64;99952.75;93130;1215;86710;-65
2021/07/14 09:16:42;;;;;;;10.80;9.80;;;;;;;39.24;37.03;99947.50;93011;1206;75835;-65
2021/07/14 09:18:52;;;;;;;11.20;9.90;;;;;;;39.18;36.33;99942.56;93102;1208;81733;-63
2021/07/14 09:21:14;;;;;;;10.30;9.20;;;;;;;39.03;37.75;99950.14;93141;1209;66031;-63
2021/07/14 09:23:30;;;;;;;11.20;10.00;;;;;;;38.71;37.32;99951.81;93130;1201;69102;-66
2021/07/14 09:25:48;;;;;;;10.60;9.50;;;;;;;38.66;36.40;99955.81;93111;1208;85781;-60
2021/07/14 09:28:03;;;;;;;11.30;10.20;;;;;;;38.24;38.19;99953.31;93124;1208;76379;-60
2021/07/14 09:30:17;;;;;;;11.00;9.80;;;;;;;37.98;39.14;99949.77;93130;1208;80128;-60
2021/07/14 09:32:27;;;;;;;11.20;10.20;;;;;;;37.69;39.94;99957.81;92988;1209;68258;-60
2021/07/14 09:34:39;;;;;;;10.70;9.80;;;;;;;37.50;40.73;99951.48;93133;1209;67856;-60
2021/07/14 09:36:51;;;;;;;15.40;10.70;;;;;;;37.59;39.89;99952.84;93076;1207;87144;-60
2021/07/14 09:39:08;;;;;;;12.90;10.40;;;;;;;37.42;39.62;99961.84;93065;1209;74672;-65
2021/07/14 09:41:16;;;;;;;11.30;10.30;;;;;;;37.18;40.62;99960.25;93130;1209;81618;-66
2021/07/14 09:43:26;;;;;;;11.50;10.40;;;;;;;37.28;40.60;99966.45;93098;1204;66940;-66
2021/07/14 09:45:48;;;;;;;11.90;10.50;;;;;;;37.31;40.26;99958.02;93072;1215;68266;-66
2021/07/14 09:48:01;;;;;;;11.20;10.30;;;;;;;37.29;40.85;99965.23;93103;1203;86988;-64
2021/07/14 09:50:11;;;;;;;11.90;10.70;;;;;;;37.15;40.54;99963.00;93098;1209;73950;-60
2021/07/14 09:52:23;;;;;;;11.10;9.90;;;;;;;36.94;41.09;99962.63;93089;1207;81388;-60
2021/07/14 09:54:33;;;;;;;11.60;10.50;;;;;;;36.97;40.67;99961.91;93080;1209;67209;-60
2021/07/14 09:56:44;;;;;;;11.10;10.20;;;;;;;36.70;40.67;99958.16;93074;1209;68730;-59
2021/07/14 09:59:06;;;;;;;12.20;11.10;;;;;;;36.74;42.03;99964.69;93081;1208;86933;-61
2021/07/14 10:01:17;;;;;;;11.40;10.30;;;;;;;36.94;40.69;99959.80;93096;1208;75343;-65
2021/07/14 10:03:32;;;;;;;13.20;10.90;;;;;;;36.82;40.60;99959.98;93029;1215;81354;-66
2021/07/14 10:05:39;;;;;;;12.60;10.70;;;;;;;36.65;41.11;99955.66;93088;1208;66963;-64
2021/07/14 10:07:47;;;;;;;11.20;10.00;;;;;;;36.63;41.04;99952.41;92966;1208;70052;-65